Overview Statistics Trail Chart Weather Telemetry Raw packets
 

This is the latest recevied weather packets stored in our database for station/object KB4JAC-13. If no packets are shown the sender has not sent any weather packets the latest 10 day(s).

<< 24 25 26 27 28 29 30 >>
Time Temp. Humidity Pressure Rain* Wind** Luminosity Snow
1788194765 33.89° C 58% 995.9 hPa 0 mm - - -
1788194164 32.22° C 63% 995.8 hPa 0 mm - - -
1788193563 30.56° C 67% 996 hPa 0 mm - - -
1788192964 31.67° C 66% 996 hPa 0 mm - - -
1788192364 31.67° C 68% 996 hPa 0 mm - - -
1788191762 30.56° C 69% 996 hPa 0 mm - - -
1788191161 32.22° C 63% 996.1 hPa 0 mm - - -
1788190561 32.22° C 66% 996.2 hPa 0 mm - - -
1788189961 32.22° C 68% 996 hPa 0 mm - - -
1788189361 31.11° C 72% 996.4 hPa 0 mm - - -
1788188760 30.56° C 71% 996.2 hPa 0 mm - - -
1788188160 30° C 72% 996.5 hPa 0 mm - - -
1788187559 31.11° C 75% 996.3 hPa 0 mm - - -
1788186958 30° C 72% 996.3 hPa 0 mm - - -
1788186357 30° C 76% 996.4 hPa 0 mm - - -
1788185757 30° C 75% 996.1 hPa 0 mm - - -
1788185156 29.44° C 76% 996.2 hPa 0 mm - - -
1788184556 28.89° C 79% 996 hPa 0 mm - - -
1788183955 28.33° C 79% 996.2 hPa 0 mm - - -
1788183354 27.22° C 85% 996.2 hPa 0 mm - - -
1788182753 27.22° C 84% 996.2 hPa 0 mm - - -
1788182153 26.67° C 87% 996.2 hPa 0 mm - - -
1788181552 25° C 91% 996.2 hPa 0 mm - - -
1788180951 22.78° C 99% 996.2 hPa 0 mm - - -
1788180352 22.22° C 99% 995.9 hPa 0 mm - - -

* Rain since midnight (hover to see other rain measurements)
** Current wind speed in m/s (hover to see current wind gust speed)